Time;durP1;ratioP1;P1;durP2;ratioP2;P2;SDS_P1;SDS_P2;PMS_P1;PMS_P2;Temp;Humidity;BMP_temperature;BMP_pressure;BME280_temperature;BME280_humidity;BME280_pressure;Samples;Min_cycle;Max_cycle;Signal;HPM_P1;HPM_P2
2023/09/25 00:00:45;;;;;;;7.88;2.35;;;13.40;14.50;;;;;;5074592;28;20040;-60
2023/09/25 00:03:11;;;;;;;6.18;1.98;;;13.40;13.20;;;;;;5073286;28;20063;-60
2023/09/25 00:05:37;;;;;;;6.80;1.80;;;13.50;12.80;;;;;;5074211;28;20048;-60
2023/09/25 00:08:03;;;;;;;4.35;1.80;;;13.50;12.10;;;;;;5074185;28;20048;-60
2023/09/25 00:10:31;;;;;;;4.50;1.80;;;13.50;13.30;;;;;;5074350;28;20043;-60
2023/09/25 00:12:57;;;;;;;4.57;1.80;;;13.40;10.60;;;;;;5074374;28;20409;-60
2023/09/25 00:15:23;;;;;;;5.70;1.80;;;13.50;13.00;;;;;;5073986;28;20040;-60
2023/09/25 00:17:50;;;;;;;5.75;2.00;;;13.50;11.40;;;;;;5073962;28;20041;-60
2023/09/25 00:20:19;;;;;;;5.95;2.22;;;13.50;10.70;;;;;;5073724;28;20377;-60
2023/09/25 00:22:46;;;;;;;5.88;2.28;;;13.60;9.60;;;;;;5073829;28;20568;-60
2023/09/25 00:25:12;;;;;;;7.05;2.05;;;13.50;11.00;;;;;;5073790;28;20040;-60
2023/09/25 00:27:37;;;;;;;5.80;2.20;;;13.50;11.10;;;;;;5073707;28;20086;-60
2023/09/25 00:30:06;;;;;;;5.30;1.90;;;13.50;10.40;;;;;;5073563;28;20040;-60
2023/09/25 00:32:33;;;;;;;4.60;2.05;;;13.50;10.40;;;;;;5073962;28;20048;-60
2023/09/25 00:34:58;;;;;;;5.68;2.03;;;13.50;11.20;;;;;;5073636;28;20047;-60
2023/09/25 00:37:25;;;;;;;4.63;1.80;;;13.50;12.10;;;;;;5073782;28;20032;-61
2023/09/25 00:39:50;;;;;;;5.97;1.85;;;13.40;11.70;;;;;;5073821;28;20075;-60
2023/09/25 00:42:16;;;;;;;5.72;1.95;;;13.50;11.20;;;;;;5073214;28;20450;-59
2023/09/25 00:44:41;;;;;;;5.25;2.10;;;13.40;11.50;;;;;;5073446;28;20028;-60
2023/09/25 00:47:08;;;;;;;5.85;2.00;;;13.40;11.20;;;;;;5073629;28;20044;-60
2023/09/25 00:49:36;;;;;;;6.65;2.30;;;13.40;12.40;;;;;;5073318;28;20577;-60
2023/09/25 00:52:02;;;;;;;4.75;1.92;;;13.40;12.80;;;;;;5073363;28;20040;-60
2023/09/25 00:54:31;;;;;;;6.90;2.20;;;13.40;11.90;;;;;;5073224;28;20041;-60
2023/09/25 00:56:58;;;;;;;6.13;1.80;;;13.40;12.90;;;;;;5073041;28;20041;-60
2023/09/25 00:59:26;;;;;;;5.88;2.53;;;13.40;12.00;;;;;;5073411;28;20105;-60
2023/09/25 01:01:51;;;;;;;5.65;1.80;;;13.40;13.60;;;;;;5073031;28;20559;-61
2023/09/25 01:04:17;;;;;;;4.70;1.77;;;13.40;13.80;;;;;;5073230;28;20169;-60
2023/09/25 01:06:43;;;;;;;6.05;2.30;;;13.40;14.90;;;;;;5073265;28;20044;-60
2023/09/25 01:09:12;;;;;;;5.65;2.13;;;13.30;15.40;;;;;;5071662;28;20119;-60
2023/09/25 01:11:38;;;;;;;5.85;2.15;;;13.30;16.30;;;;;;5073073;28;20044;-61
2023/09/25 01:14:04;;;;;;;5.47;2.72;;;13.30;15.50;;;;;;5073104;28;20054;-60
2023/09/25 01:16:30;;;;;;;6.55;2.42;;;13.30;16.40;;;;;;5072842;28;20040;-60
2023/09/25 01:18:56;;;;;;;4.70;2.40;;;13.30;17.50;;;;;;5072674;28;20082;-60
2023/09/25 01:21:22;;;;;;;6.10;2.20;;;13.20;17.40;;;;;;5072771;28;20068;-62
2023/09/25 01:23:47;;;;;;;5.80;2.40;;;13.20;16.80;;;;;;5072791;28;20738;-60
2023/09/25 01:26:13;;;;;;;4.45;2.20;;;13.20;18.10;;;;;;5072883;28;20428;-60
2023/09/25 01:28:38;;;;;;;6.00;2.90;;;13.20;18.60;;;;;;5072650;28;20078;-59
2023/09/25 01:31:07;;;;;;;6.63;2.35;;;13.20;19.80;;;;;;5072679;28;20040;-60
2023/09/25 01:33:33;;;;;;;5.82;2.70;;;13.10;18.10;;;;;;5072633;28;20037;-60
2023/09/25 01:35:59;;;;;;;6.18;2.58;;;13.10;18.90;;;;;;5072520;28;20105;-60
2023/09/25 01:38:24;;;;;;;5.70;2.45;;;13.10;19.20;;;;;;5072326;28;20037;-60
2023/09/25 01:40:50;;;;;;;7.57;2.90;;;13.00;22.10;;;;;;5072435;28;20041;-59
2023/09/25 01:43:15;;;;;;;7.28;2.60;;;13.10;23.20;;;;;;5071398;28;20037;-60
2023/09/25 01:45:41;;;;;;;5.38;2.50;;;13.00;22.60;;;;;;5072353;28;20124;-60
2023/09/25 01:48:07;;;;;;;7.75;2.70;;;13.00;23.10;;;;;;5072420;28;20036;-60
2023/09/25 01:50:32;;;;;;;7.60;2.78;;;12.90;22.80;;;;;;5072357;28;20111;-60
2023/09/25 01:53:00;;;;;;;6.07;2.38;;;12.90;23.10;;;;;;5072169;28;20041;-61
2023/09/25 01:55:35;;;;;;;5.60;2.72;;;12.90;22.80;;;;;;5071448;28;20044;-60
2023/09/25 01:58:02;;;;;;;5.50;2.60;;;12.90;24.90;;;;;;5072262;28;20094;-60
2023/09/25 02:00:28;;;;;;;7.95;2.90;;;12.90;26.80;;;;;;5072122;28;20040;-60
2023/09/25 02:02:54;;;;;;;6.18;2.58;;;12.80;26.70;;;;;;5072109;28;20097;-60
2023/09/25 02:05:19;;;;;;;6.43;3.08;;;12.80;27.00;;;;;;5072072;28;20055;-60
2023/09/25 02:07:45;;;;;;;6.85;2.83;;;12.70;27.80;;;;;;5072028;28;20044;-61
2023/09/25 02:10:11;;;;;;;5.80;2.70;;;12.80;28.10;;;;;;5071816;28;20531;-61
2023/09/25 02:12:37;;;;;;;6.72;2.88;;;12.70;29.60;;;;;;5072053;28;20086;-59
2023/09/25 02:15:05;;;;;;;7.63;2.78;;;12.70;29.90;;;;;;5072129;28;20388;-61
2023/09/25 02:17:32;;;;;;;6.65;2.97;;;12.60;31.60;;;;;;5071992;28;20040;-59
2023/09/25 02:20:17;;;;;;;6.85;2.88;;;12.60;30.90;;;;;;5071770;28;20131;-60
2023/09/25 02:22:46;;;;;;;6.50;2.95;;;12.60;31.40;;;;;;5072100;28;20043;-60
2023/09/25 02:25:12;;;;;;;7.25;2.92;;;12.60;33.60;;;;;;5072214;28;20381;-60
2023/09/25 02:27:41;;;;;;;5.75;3.00;;;12.50;34.00;;;;;;5070510;28;20497;-60
2023/09/25 02:30:08;;;;;;;7.03;3.22;;;12.50;34.20;;;;;;5071980;28;20037;-60
2023/09/25 02:32:35;;;;;;;6.20;2.90;;;12.50;35.40;;;;;;5070788;28;20045;-60
2023/09/25 02:35:01;;;;;;;6.25;2.90;;;12.50;36.90;;;;;;5071795;28;20044;-60
2023/09/25 02:37:26;;;;;;;6.75;3.10;;;12.50;35.80;;;;;;5071699;28;20032;-60
2023/09/25 02:39:52;;;;;;;5.07;2.60;;;12.50;34.80;;;;;;5071695;28;20128;-60
2023/09/25 02:42:17;;;;;;;7.28;3.15;;;12.50;35.90;;;;;;5071687;28;20056;-60
2023/09/25 02:44:43;;;;;;;6.40;2.63;;;12.50;41.20;;;;;;5071785;28;20040;-60
2023/09/25 02:47:09;;;;;;;6.50;3.20;;;12.50;37.40;;;;;;5071558;28;20086;-61
2023/09/25 02:49:34;;;;;;;6.03;2.70;;;12.50;38.10;;;;;;5071868;28;20093;-60
2023/09/25 02:52:00;;;;;;;6.45;2.70;;;12.50;37.60;;;;;;5070660;28;20119;-60
2023/09/25 02:54:26;;;;;;;6.90;2.85;;;12.50;39.00;;;;;;5071870;28;20041;-60
2023/09/25 02:56:51;;;;;;;6.38;3.00;;;12.50;39.40;;;;;;5071854;28;20047;-60
2023/09/25 02:59:17;;;;;;;7.00;2.55;;;12.40;40.20;;;;;;5071646;28;20047;-60
2023/09/25 03:01:43;;;;;;;7.60;2.95;;;12.50;40.10;;;;;;5071787;28;20036;-60
2023/09/25 03:04:08;;;;;;;8.10;3.50;;;12.30;40.50;;;;;;5070331;28;20040;-60
2023/09/25 03:06:34;;;;;;;8.38;3.30;;;12.40;40.30;;;;;;5074932;28;20476;-60
2023/09/25 03:08:59;;;;;;;6.57;2.97;;;12.40;40.10;;;;;;5075570;28;20044;-60
2023/09/25 03:11:26;;;;;;;6.57;2.67;;;12.40;39.30;;;;;;5075138;28;20075;-60
2023/09/25 03:13:52;;;;;;;6.30;3.20;;;12.40;40.00;;;;;;5075209;28;20037;-60
2023/09/25 03:16:18;;;;;;;5.95;2.88;;;12.30;39.40;;;;;;5073838;28;20045;-60
2023/09/25 03:18:44;;;;;;;7.03;3.35;;;12.50;40.70;;;;;;5074631;28;20099;-61
2023/09/25 03:21:14;;;;;;;7.68;3.08;;;12.40;40.00;;;;;;5073823;28;20076;-60
2023/09/25 03:23:41;;;;;;;7.10;3.05;;;12.40;40.20;;;;;;5075269;28;20036;-60
2023/09/25 03:26:17;;;;;;;7.07;2.88;;;12.30;42.90;;;;;;5075034;28;20048;-60
2023/09/25 03:28:44;;;;;;;7.00;3.17;;;12.40;39.70;;;;;;5074893;28;20040;-60
2023/09/25 03:31:10;;;;;;;6.00;3.00;;;12.30;40.70;;;;;;5074921;28;20468;-60
2023/09/25 03:33:37;;;;;;;5.75;2.90;;;12.30;40.10;;;;;;5073535;28;20049;-60
2023/09/25 03:36:03;;;;;;;6.25;3.08;;;12.30;40.90;;;;;;5075015;28;20206;-59
2023/09/25 03:38:29;;;;;;;7.45;3.25;;;12.30;41.00;;;;;;5074880;28;20116;-60
2023/09/25 03:40:55;;;;;;;8.50;3.20;;;12.30;41.90;;;;;;5074711;28;20158;-60
2023/09/25 03:43:21;;;;;;;6.03;2.92;;;12.30;42.80;;;;;;5074816;28;20068;-60
2023/09/25 03:45:47;;;;;;;6.47;2.90;;;12.30;43.60;;;;;;5074635;28;20487;-59
2023/09/25 03:48:13;;;;;;;6.18;3.00;;;12.30;43.30;;;;;;5074545;28;20048;-59
2023/09/25 03:50:39;;;;;;;6.40;3.20;;;12.30;43.70;;;;;;5074689;28;20388;-60
2023/09/25 03:53:05;;;;;;;6.63;3.50;;;12.20;45.60;;;;;;5074457;28;20036;-60
2023/09/25 03:55:31;;;;;;;6.93;3.08;;;12.20;45.90;;;;;;5074403;28;20115;-60
2023/09/25 03:57:56;;;;;;;7.22;3.08;;;12.20;45.90;;;;;;5074375;28;20524;-60
2023/09/25 04:00:24;;;;;;;7.85;3.28;;;12.10;45.50;;;;;;5074337;28;20068;-60
2023/09/25 04:02:50;;;;;;;7.88;2.97;;;12.20;45.70;;;;;;5074272;28;20540;-60
2023/09/25 04:05:16;;;;;;;7.10;3.00;;;12.20;46.40;;;;;;5074535;28;20076;-60
2023/09/25 04:07:42;;;;;;;7.13;3.63;;;12.10;48.40;;;;;;5072921;28;20075;-60
2023/09/25 04:10:08;;;;;;;6.38;3.20;;;12.10;46.90;;;;;;5074354;28;20048;-60
2023/09/25 04:12:37;;;;;;;7.57;3.85;;;12.10;48.20;;;;;;5074186;28;20599;-61
2023/09/25 04:15:14;;;;;;;7.32;3.20;;;12.10;46.70;;;;;;5073956;28;20492;-60
2023/09/25 04:17:43;;;;;;;7.13;3.38;;;12.10;45.70;;;;;;5073689;28;20427;-60
2023/09/25 04:20:24;;;;;;;6.68;3.25;;;12.10;45.80;;;;;;5074068;28;20052;-60
2023/09/25 04:22:51;;;;;;;6.28;3.30;;;12.10;48.20;;;;;;5074158;28;20029;-60
2023/09/25 04:25:20;;;;;;;7.13;3.53;;;12.10;45.10;;;;;;5072678;28;20089;-60
2023/09/25 04:27:52;;;;;;;6.65;3.33;;;12.20;43.50;;;;;;5073676;28;20479;-59
2023/09/25 04:30:19;;;;;;;5.80;3.00;;;12.20;45.10;;;;;;5073698;28;20050;-61
2023/09/25 04:32:46;;;;;;;7.28;3.55;;;12.20;44.40;;;;;;5073883;28;20040;-59
2023/09/25 04:35:13;;;;;;;5.90;2.83;;;12.20;43.50;;;;;;5073875;28;20036;-60
2023/09/25 04:37:42;;;;;;;5.28;2.67;;;12.20;42.90;;;;;;5073582;28;20157;-60
2023/09/25 04:40:21;;;;;;;7.93;2.95;;;12.20;41.00;;;;;;5073567;28;20032;-60
2023/09/25 04:42:47;;;;;;;8.82;3.30;;;12.20;42.00;;;;;;5073769;28;20033;-57
2023/09/25 04:45:13;;;;;;;8.52;3.17;;;12.20;42.20;;;;;;5073664;28;20037;-60
2023/09/25 04:47:41;;;;;;;6.50;3.03;;;12.20;42.40;;;;;;5073414;28;20365;-60
2023/09/25 04:50:08;;;;;;;5.57;3.22;;;12.10;42.90;;;;;;5073578;28;20045;-60
2023/09/25 04:52:38;;;;;;;6.70;2.92;;;12.20;43.60;;;;;;5073253;28;20500;-59
2023/09/25 04:55:05;;;;;;;7.32;3.58;;;12.20;43.30;;;;;;5073148;28;20116;-60
2023/09/25 04:57:31;;;;;;;7.80;3.20;;;12.20;44.30;;;;;;5073221;28;20496;-62
2023/09/25 04:59:57;;;;;;;6.85;3.20;;;12.20;42.70;;;;;;5073609;28;20047;-59
2023/09/25 05:02:22;;;;;;;6.53;2.67;;;12.20;40.70;;;;;;5073243;28;20153;-60
2023/09/25 05:04:48;;;;;;;7.00;3.28;;;12.30;42.50;;;;;;5073268;28;20101;-60
2023/09/25 05:07:14;;;;;;;6.60;3.17;;;12.20;42.00;;;;;;5073010;28;20736;-60
2023/09/25 05:09:39;;;;;;;7.20;3.20;;;12.20;41.80;;;;;;5073258;28;20439;-60
2023/09/25 05:12:05;;;;;;;6.57;3.35;;;12.20;42.40;;;;;;5071682;28;20071;-59
2023/09/25 05:14:31;;;;;;;7.40;3.40;;;12.20;40.20;;;;;;5073117;28;20063;-60
2023/09/25 05:16:59;;;;;;;7.28;3.13;;;12.20;40.40;;;;;;5072622;28;20041;-60
2023/09/25 05:19:25;;;;;;;6.43;3.20;;;12.20;40.50;;;;;;5072852;28;20068;-60
2023/09/25 05:21:50;;;;;;;6.78;2.70;;;12.30;38.90;;;;;;5055200;28;20037;-60
2023/09/25 05:24:16;;;;;;;7.43;3.05;;;12.20;38.20;;;;;;5072835;28;20032;-60
2023/09/25 05:26:41;;;;;;;5.85;2.97;;;12.30;38.90;;;;;;5072848;28;20040;-60
2023/09/25 05:29:07;;;;;;;8.55;3.33;;;12.30;38.70;;;;;;5071924;28;20036;-60
2023/09/25 05:31:33;;;;;;;6.90;2.95;;;12.30;37.40;;;;;;5072531;28;20045;-60
2023/09/25 05:33:58;;;;;;;6.85;3.33;;;12.30;39.40;;;;;;5072537;28;20149;-61
2023/09/25 05:36:24;;;;;;;7.20;3.17;;;12.30;39.50;;;;;;5072591;28;20092;-60
2023/09/25 05:38:55;;;;;;;7.22;3.22;;;12.20;38.80;;;;;;5072592;28;20491;-61
2023/09/25 05:41:20;;;;;;;8.63;3.72;;;12.20;39.00;;;;;;5072673;28;20097;-60
2023/09/25 05:43:46;;;;;;;6.38;3.15;;;12.20;39.10;;;;;;5072519;28;20032;-60
2023/09/25 05:46:12;;;;;;;8.52;3.75;;;12.20;40.80;;;;;;5071152;28;20070;-60
2023/09/25 05:48:39;;;;;;;7.10;3.35;;;12.20;41.30;;;;;;5072330;28;20378;-60
2023/09/25 05:51:04;;;;;;;6.65;3.22;;;12.20;42.90;;;;;;5072208;28;20055;-60
2023/09/25 05:53:30;;;;;;;6.45;3.40;;;12.20;42.70;;;;;;5072514;28;20127;-60
2023/09/25 05:55:56;;;;;;;6.97;2.97;;;12.30;40.20;;;;;;5072331;28;20044;-60
2023/09/25 05:58:22;;;;;;;6.72;3.70;;;12.30;41.40;;;;;;5072094;28;20033;-60
2023/09/25 06:00:47;;;;;;;6.20;3.35;;;12.30;40.50;;;;;;5072363;28;20039;-60
2023/09/25 06:03:14;;;;;;;7.30;3.28;;;12.30;38.60;;;;;;5072158;28;20045;-60
2023/09/25 06:05:40;;;;;;;6.65;3.10;;;12.30;36.30;;;;;;5071937;28;20051;-60
2023/09/25 06:08:06;;;;;;;7.30;3.35;;;12.40;37.50;;;;;;5072090;28;20044;-60
2023/09/25 06:10:32;;;;;;;8.05;3.28;;;12.40;36.10;;;;;;5072054;28;20040;-60
2023/09/25 06:13:00;;;;;;;6.82;3.30;;;12.40;36.80;;;;;;5072314;28;20048;-60
2023/09/25 06:15:26;;;;;;;7.53;3.30;;;12.40;34.70;;;;;;5071921;28;20135;-61
2023/09/25 06:17:52;;;;;;;6.70;3.00;;;12.50;33.40;;;;;;5070976;28;20079;-57
2023/09/25 06:20:20;;;;;;;6.22;2.90;;;12.50;33.00;;;;;;5071787;28;20060;-60
2023/09/25 06:22:46;;;;;;;6.95;3.13;;;12.50;33.40;;;;;;5072213;28;20051;-60
2023/09/25 06:25:19;;;;;;;7.18;3.30;;;12.50;34.00;;;;;;5071844;28;20116;-60
2023/09/25 06:27:45;;;;;;;7.50;3.17;;;12.50;31.70;;;;;;5072129;28;20045;-60
2023/09/25 06:30:16;;;;;;;5.82;2.90;;;12.50;31.00;;;;;;5070695;28;20067;-60
2023/09/25 06:32:41;;;;;;;12.05;3.22;;;12.50;31.60;;;;;;5072048;28;20049;-60
2023/09/25 06:35:07;;;;;;;6.53;3.33;;;12.60;27.70;;;;;;5071960;28;20043;-60
2023/09/25 06:37:34;;;;;;;6.25;2.78;;;12.70;26.00;;;;;;5071942;28;20491;-60
2023/09/25 06:39:59;;;;;;;7.28;2.90;;;12.70;26.10;;;;;;5072477;28;20493;-60
2023/09/25 06:42:26;;;;;;;7.38;2.72;;;12.70;25.10;;;;;;5076107;28;20040;-60
2023/09/25 06:44:52;;;;;;;6.40;2.97;;;12.80;24.90;;;;;;5075735;28;20119;-60
2023/09/25 06:47:17;;;;;;;6.47;2.75;;;12.80;25.30;;;;;;5075526;28;20115;-59
2023/09/25 06:49:43;;;;;;;6.75;2.58;;;12.80;24.60;;;;;;5075819;28;20048;-61
2023/09/25 06:52:09;;;;;;;6.90;2.97;;;12.80;23.70;;;;;;5075549;28;20109;-61
2023/09/25 06:54:34;;;;;;;6.55;2.80;;;12.80;23.30;;;;;;5075606;28;20047;-60
2023/09/25 06:57:00;;;;;;;8.07;3.40;;;12.90;20.10;;;;;;5075592;28;20047;-60
2023/09/25 06:59:26;;;;;;;6.88;2.60;;;12.80;20.20;;;;;;5075828;28;20041;-60
2023/09/25 07:01:52;;;;;;;6.93;2.55;;;12.90;20.20;;;;;;5075730;28;20045;-60
2023/09/25 07:04:19;;;;;;;5.45;2.63;;;12.90;20.50;;;;;;5075340;28;20113;-61
2023/09/25 07:06:45;;;;;;;6.20;2.70;;;12.90;17.80;;;;;;5075503;28;20052;-60
2023/09/25 07:09:14;;;;;;;6.38;2.70;;;13.00;15.40;;;;;;5075600;28;20052;-60
2023/09/25 07:11:40;;;;;;;6.03;2.63;;;13.00;16.60;;;;;;5075443;28;20041;-60
2023/09/25 07:14:05;;;;;;;7.28;2.67;;;13.00;15.20;;;;;;5075464;28;20037;-60
2023/09/25 07:16:31;;;;;;;6.03;2.50;;;13.10;15.50;;;;;;5075364;28;20047;-60
2023/09/25 07:18:57;;;;;;;7.15;2.67;;;13.10;11.60;;;;;;5074922;28;20398;-61
2023/09/25 07:21:23;;;;;;;6.53;2.70;;;13.20;15.30;;;;;;5075444;28;20044;-60
2023/09/25 07:23:49;;;;;;;6.80;2.50;;;13.30;15.30;;;;;;5075158;28;20041;-60
2023/09/25 07:26:17;;;;;;;6.07;2.63;;;13.30;11.40;;;;;;5074951;28;20048;-60
2023/09/25 07:28:45;;;;;;;7.88;2.35;;;13.30;10.30;;;;;;5074768;28;20044;-60
2023/09/25 07:31:11;;;;;;;5.35;2.55;;;13.40;7.80;;;;;;5073556;28;20040;-60
2023/09/25 07:33:37;;;;;;;6.18;2.63;;;13.50;9.20;;;;;;5073503;28;20045;-60
2023/09/25 07:36:03;;;;;;;5.85;2.28;;;13.60;11.30;;;;;;5073487;28;20345;-60
2023/09/25 07:38:29;;;;;;;6.78;3.13;;;13.60;9.70;;;;;;5073420;28;20119;-60
2023/09/25 07:40:57;;;;;;;6.65;2.42;;;13.70;1.20;;;;;;5074634;28;20059;-61
2023/09/25 07:43:23;;;;;;;6.63;2.63;;;13.70;1.00;;;;;;5074546;28;20067;-60
2023/09/25 07:45:52;;;;;;;8.00;2.30;;;13.80;1.00;;;;;;5073398;28;20058;-60
2023/09/25 07:48:18;;;;;;;6.30;2.85;;;13.80;1.00;;;;;;5074601;28;20119;-60
2023/09/25 07:50:45;;;;;;;6.03;2.35;;;13.80;1.00;;;;;;5074686;28;20123;-60
2023/09/25 07:53:12;;;;;;;5.38;2.05;;;13.90;1.00;;;;;;5073545;28;20047;-61
2023/09/25 07:55:37;;;;;;;6.57;2.05;;;13.90;1.00;;;;;;5074414;28;20037;-60
2023/09/25 07:58:04;;;;;;;5.75;2.50;;;13.90;1.00;;;;;;5074523;28;20408;-60
2023/09/25 08:00:44;;;;;;;6.97;2.53;;;14.00;1.00;;;;;;5074621;28;20102;-60
2023/09/25 08:03:15;;;;;;;5.82;2.25;;;14.00;1.00;;;;;;5074351;28;20044;-60
2023/09/25 08:05:41;;;;;;;6.65;2.78;;;14.00;1.00;;;;;;5074368;28;20136;-60
2023/09/25 08:08:08;;;;;;;5.30;2.13;;;14.00;1.00;;;;;;5074352;28;20520;-61
2023/09/25 08:10:37;;;;;;;5.85;2.28;;;14.10;1.00;;;;;;5074234;28;20051;-60
2023/09/25 08:13:02;;;;;;;5.72;2.25;;;14.10;1.00;;;;;;5074460;28;20381;-60
2023/09/25 08:15:28;;;;;;;5.40;2.28;;;14.20;1.00;;;;;;5074180;28;20041;-60
2023/09/25 08:17:54;;;;;;;5.53;2.05;;;14.20;1.00;;;;;;5074251;28;20033;-60
2023/09/25 08:20:22;;;;;;;7.35;2.10;;;14.20;1.00;;;;;;5073857;28;20056;-60
2023/09/25 08:22:50;;;;;;;9.02;2.83;;;14.30;1.00;;;;;;5073994;28;20051;-60
2023/09/25 08:25:16;;;;;;;6.47;2.40;;;14.30;1.00;;;;;;5074169;28;20741;-60
2023/09/25 08:27:43;;;;;;;6.07;2.25;;;14.40;1.00;;;;;;5055820;28;20036;-60
2023/09/25 08:30:10;;;;;;;5.68;2.20;;;14.50;1.00;;;;;;5073773;28;20101;-60
2023/09/25 08:32:36;;;;;;;5.47;2.22;;;14.60;1.00;;;;;;5073789;28;20388;-60
2023/09/25 08:35:03;;;;;;;5.50;1.85;;;14.80;1.00;;;;;;5072449;28;20047;-59
2023/09/25 08:37:28;;;;;;;5.40;2.30;;;14.80;1.00;;;;;;5073591;28;20040;-59
2023/09/25 08:39:55;;;;;;;5.68;1.90;;;14.90;1.00;;;;;;5073781;28;20093;-60
2023/09/25 08:42:25;;;;;;;5.88;2.25;;;15.00;1.00;;;;;;5073685;28;20036;-61
2023/09/25 08:44:52;;;;;;;5.38;1.95;;;15.00;1.00;;;;;;5073583;28;20366;-60
2023/09/25 08:47:22;;;;;;;7.53;1.90;;;15.10;1.00;;;;;;5073568;28;20067;-60
2023/09/25 08:49:49;;;;;;;10.25;2.50;;;15.20;1.00;;;;;;5073377;28;20112;-60
2023/09/25 08:52:16;;;;;;;6.47;2.03;;;15.20;1.00;;;;;;5073612;28;20048;-60
2023/09/25 08:54:42;;;;;;;5.32;1.90;;;15.30;1.00;;;;;;5073544;28;20112;-60
2023/09/25 08:57:09;;;;;;;6.72;2.10;;;15.40;1.00;;;;;;5071920;28;20506;-61
2023/09/25 08:59:37;;;;;;;4.20;1.90;;;15.40;1.00;;;;;;5073205;28;20050;-60
2023/09/25 09:02:04;;;;;;;6.75;2.13;;;15.40;1.00;;;;;;5073439;28;20055;-60
2023/09/25 09:04:30;;;;;;;5.15;2.03;;;15.50;1.00;;;;;;5073005;28;20037;-61
2023/09/25 09:06:56;;;;;;;4.85;2.00;;;15.60;1.00;;;;;;5073286;28;20121;-60
2023/09/25 09:09:22;;;;;;;7.38;2.30;;;15.60;1.00;;;;;;5071763;28;20515;-60
2023/09/25 09:11:50;;;;;;;6.65;2.17;;;15.70;1.00;;;;;;5073098;28;20079;-61
2023/09/25 09:14:31;;;;;;;6.72;2.10;;;15.80;1.00;;;;;;5072978;28;20086;-60
2023/09/25 09:17:04;;;;;;;5.60;1.80;;;15.80;1.00;;;;;;5071436;28;20480;-61
2023/09/25 09:19:51;;;;;;;6.22;2.10;;;15.90;1.00;;;;;;5072441;28;20818;-59
2023/09/25 09:22:18;;;;;;;5.45;2.10;;;15.90;1.00;;;;;;5073134;28;20044;-60
2023/09/25 09:24:44;;;;;;;6.75;2.20;;;16.00;1.00;;;;;;5072995;28;20080;-60
2023/09/25 09:27:11;;;;;;;6.38;2.45;;;16.00;1.00;;;;;;5072624;28;20070;-60
2023/09/25 09:29:42;;;;;;;6.38;2.28;;;16.10;1.00;;;;;;5071298;28;20039;-60
2023/09/25 09:32:08;;;;;;;4.80;2.08;;;16.10;1.00;;;;;;5071597;28;20110;-60
2023/09/25 09:34:36;;;;;;;5.35;2.20;;;16.10;1.00;;;;;;5072581;28;20495;-60
2023/09/25 09:37:02;;;;;;;6.20;2.10;;;16.20;1.00;;;;;;5072391;28;20049;-60
2023/09/25 09:39:34;;;;;;;6.25;2.38;;;16.30;1.00;;;;;;5072322;28;20128;-60
2023/09/25 09:42:05;;;;;;;7.80;2.25;;;16.30;1.00;;;;;;5072379;28;20044;-60
2023/09/25 09:44:32;;;;;;;6.70;2.20;;;16.40;1.00;;;;;;5072512;28;20044;-60
2023/09/25 09:47:03;;;;;;;6.07;2.28;;;16.50;1.00;;;;;;5072234;28;20557;-59
2023/09/25 09:49:32;;;;;;;5.05;1.98;;;16.50;1.00;;;;;;5072146;28;20039;-60
2023/09/25 09:52:02;;;;;;;4.50;1.75;;;16.50;1.00;;;;;;5072274;28;20047;-58
2023/09/25 09:54:31;;;;;;;5.80;1.95;;;16.60;1.00;;;;;;5071196;28;20415;-60
2023/09/25 09:56:59;;;;;;;6.70;1.98;;;16.60;1.00;;;;;;5072085;28;20119;-60
2023/09/25 09:59:25;;;;;;;5.38;2.20;;;16.60;1.00;;;;;;5072214;28;20107;-60
2023/09/25 10:01:51;;;;;;;5.47;1.83;;;16.70;1.00;;;;;;5072478;28;20037;-60
2023/09/25 10:04:18;;;;;;;6.10;2.20;;;16.80;1.00;;;;;;5071282;28;20373;-60
2023/09/25 10:07:13;;;;;;;7.15;2.22;;;16.90;1.00;;;;;;5072242;28;20050;-60
2023/09/25 10:09:56;;;;;;;6.18;2.38;;;17.10;1.00;;;;;;5067284;28;20052;-60
2023/09/25 10:12:49;;;;;;;6.22;1.88;;;17.20;1.00;;;;;;5072296;28;20087;-59
2023/09/25 10:15:22;;;;;;;5.90;2.08;;;17.30;1.00;;;;;;5071459;28;20044;-60
2023/09/25 10:17:48;;;;;;;5.07;1.92;;;17.40;1.00;;;;;;5070529;28;20029;-60
2023/09/25 10:20:37;;;;;;;5.55;2.22;;;17.40;1.00;;;;;;5071923;28;20428;-60
2023/09/25 10:23:06;;;;;;;6.65;2.33;;;17.50;1.00;;;;;;5072341;28;20083;-60
2023/09/25 10:25:45;;;;;;;5.13;1.80;;;17.60;1.00;;;;;;5071911;28;20072;-60
2023/09/25 10:28:28;;;;;;;8.07;2.50;;;17.70;1.00;;;;;;5070647;28;20079;-60
2023/09/25 10:30:56;;;;;;;5.28;1.70;;;17.70;1.00;;;;;;5070855;28;20094;-60
2023/09/25 10:33:22;;;;;;;7.05;1.90;;;17.80;1.00;;;;;;5071862;28;20037;-60
2023/09/25 10:35:50;;;;;;;7.45;2.15;;;17.80;1.00;;;;;;5071745;28;20374;-60
2023/09/25 10:38:25;;;;;;;6.60;2.20;;;17.90;1.00;;;;;;5070476;28;20123;-60
2023/09/25 10:40:54;;;;;;;5.88;1.95;;;17.90;1.00;;;;;;5071609;28;20039;-60
2023/09/25 10:43:24;;;;;;;7.68;2.03;;;17.90;1.00;;;;;;5071958;28;20038;-60
2023/09/25 10:45:52;;;;;;;6.03;2.00;;;18.10;1.00;;;;;;5071829;28;20036;-60
2023/09/25 10:48:18;;;;;;;7.35;2.55;;;18.10;1.00;;;;;;5071730;28;20051;-60
2023/09/25 10:50:44;;;;;;;5.28;1.80;;;18.10;1.00;;;;;;5071849;28;20048;-60
2023/09/25 10:53:10;;;;;;;5.45;1.92;;;18.20;1.00;;;;;;5070353;28;20036;-60
2023/09/25 10:55:37;;;;;;;5.80;1.88;;;18.30;1.00;;;;;;5071670;28;20040;-60
2023/09/25 10:58:04;;;;;;;5.88;2.20;;;18.40;1.00;;;;;;5070029;28;20074;-60
2023/09/25 11:00:32;;;;;;;7.65;2.25;;;18.40;1.00;;;;;;5071823;28;20084;-60
2023/09/25 11:02:59;;;;;;;5.88;2.08;;;18.50;1.00;;;;;;5071570;28;20515;-61
2023/09/25 11:05:25;;;;;;;6.53;2.03;;;18.50;1.00;;;;;;5071435;28;20054;-61
2023/09/25 11:07:51;;;;;;;5.30;1.92;;;18.60;1.00;;;;;;5071750;28;20036;-60
2023/09/25 11:10:17;;;;;;;7.97;2.33;;;18.80;1.00;;;;;;5070585;28;20044;-61
2023/09/25 11:12:47;;;;;;;5.22;1.90;;;19.00;1.00;;;;;;5071519;28;20029;-60
2023/09/25 11:15:22;;;;;;;6.70;2.10;;;19.20;1.00;;;;;;5070442;28;20044;-60
2023/09/25 11:17:48;;;;;;;5.30;1.70;;;19.30;1.00;;;;;;5071659;28;20078;-60
2023/09/25 11:20:22;;;;;;;6.55;2.00;;;19.40;1.00;;;;;;5071249;28;20684;-60
2023/09/25 11:22:49;;;;;;;5.28;2.22;;;19.40;1.00;;;;;;5071077;28;20119;-60
2023/09/25 11:25:16;;;;;;;5.90;2.00;;;19.30;1.00;;;;;;5071053;28;20029;-61
2023/09/25 11:27:53;;;;;;;4.90;1.80;;;19.20;1.00;;;;;;5074422;28;20037;-60
2023/09/25 11:30:19;;;;;;;6.57;2.30;;;19.20;1.00;;;;;;5073417;28;20126;-61
2023/09/25 11:32:45;;;;;;;5.65;2.03;;;19.20;1.00;;;;;;5073489;28;20110;-60
2023/09/25 11:35:12;;;;;;;8.55;2.00;;;19.20;1.00;;;;;;5074882;28;20476;-60
2023/09/25 11:37:57;;;;;;;5.90;1.80;;;19.20;1.00;;;;;;5074921;28;20063;-61
2023/09/25 11:40:22;;;;;;;6.78;2.17;;;19.30;1.00;;;;;;5074545;28;20051;-61
2023/09/25 11:42:48;;;;;;;6.55;2.20;;;19.20;1.00;;;;;;5074380;28;20356;-61
2023/09/25 11:45:15;;;;;;;5.88;2.10;;;19.40;1.00;;;;;;5074596;28;20036;-60
2023/09/25 11:47:42;;;;;;;6.20;2.03;;;19.70;1.00;;;;;;5074311;28;20094;-60
2023/09/25 11:50:10;;;;;;;6.55;2.50;;;19.70;1.00;;;;;;5074868;28;20040;-60
2023/09/25 11:52:36;;;;;;;6.55;2.20;;;19.60;1.00;;;;;;5074578;28;20485;-60
2023/09/25 11:55:05;;;;;;;5.85;2.20;;;19.50;1.00;;;;;;5073136;28;20113;-60
2023/09/25 11:57:31;;;;;;;7.03;2.00;;;19.50;1.00;;;;;;5073978;28;20389;-60
2023/09/25 11:59:57;;;;;;;8.30;2.60;;;19.50;1.00;;;;;;5074181;28;20045;-60
2023/09/25 12:02:25;;;;;;;6.45;1.92;;;19.50;1.00;;;;;;5074172;28;20036;-60
2023/09/25 12:04:54;;;;;;;6.65;1.90;;;19.50;1.00;;;;;;5074079;28;20036;-61
2023/09/25 12:07:20;;;;;;;6.85;2.50;;;19.50;1.00;;;;;;5074253;28;20040;-60
2023/09/25 12:09:46;;;;;;;6.25;2.08;;;19.40;1.00;;;;;;5074073;28;20041;-59
2023/09/25 12:12:12;;;;;;;5.55;1.92;;;19.30;1.00;;;;;;5074389;28;20036;-60
2023/09/25 12:14:38;;;;;;;5.97;1.90;;;19.20;1.00;;;;;;5074112;28;20045;-60
2023/09/25 12:17:03;;;;;;;5.78;2.00;;;19.20;1.00;;;;;;5072817;28;20052;-60
2023/09/25 12:19:29;;;;;;;4.55;1.75;;;19.30;1.00;;;;;;5074107;28;20055;-60
2023/09/25 12:21:55;;;;;;;7.53;2.10;;;19.40;1.00;;;;;;5073991;28;20037;-60
2023/09/25 12:24:20;;;;;;;4.70;1.90;;;19.40;1.00;;;;;;5074311;28;20040;-61
2023/09/25 12:26:46;;;;;;;7.57;2.70;;;19.40;1.00;;;;;;5073942;28;20496;-61
2023/09/25 12:29:12;;;;;;;4.75;1.73;;;19.50;1.00;;;;;;5074141;28;20036;-59
2023/09/25 12:31:38;;;;;;;6.45;2.33;;;19.50;1.00;;;;;;5074155;28;20107;-60
2023/09/25 12:34:04;;;;;;;6.72;2.17;;;19.60;1.00;;;;;;5073971;28;20080;-60
2023/09/25 12:36:30;;;;;;;8.32;1.77;;;19.50;1.00;;;;;;5073552;28;20036;-60
2023/09/25 12:38:55;;;;;;;8.18;2.03;;;19.50;1.00;;;;;;5073147;28;20036;-60
2023/09/25 12:41:21;;;;;;;6.75;2.08;;;19.50;1.00;;;;;;5073588;28;20032;-60
2023/09/25 12:43:47;;;;;;;7.78;2.30;;;19.50;1.00;;;;;;5073879;28;20115;-60
2023/09/25 12:46:12;;;;;;;5.80;2.10;;;19.60;1.00;;;;;;5073647;28;20044;-60
2023/09/25 12:48:38;;;;;;;5.47;1.92;;;19.70;1.00;;;;;;5073498;28;20473;-60
2023/09/25 12:51:04;;;;;;;6.00;2.10;;;19.80;1.00;;;;;;5073780;28;20153;-60